sensor_id;sensor_type;location;lat;lon;timestamp;pressure;altitude;pressure_sealevel;temperature;humidity
55424;BME280;41294;42.666;23.350;2023-04-20T00:01:53;94584.16;;;11.56;80.74
55424;BME280;41294;42.666;23.350;2023-04-20T00:04:19;94582.06;;;11.60;79.54
55424;BME280;41294;42.666;23.350;2023-04-20T00:06:45;94578.44;;;11.57;78.45
55424;BME280;41294;42.666;23.350;2023-04-20T00:09:11;94570.50;;;11.57;77.97
55424;BME280;41294;42.666;23.350;2023-04-20T00:11:37;94572.06;;;11.64;77.83
55424;BME280;41294;42.666;23.350;2023-04-20T00:14:03;94575.00;;;11.66;77.58
55424;BME280;41294;42.666;23.350;2023-04-20T00:16:28;94568.97;;;11.65;77.70
55424;BME280;41294;42.666;23.350;2023-04-20T00:18:54;94572.00;;;11.73;76.65
55424;BME280;41294;42.666;23.350;2023-04-20T00:21:19;94567.09;;;11.66;77.77
55424;BME280;41294;42.666;23.350;2023-04-20T00:23:48;94556.72;;;11.62;77.64
55424;BME280;41294;42.666;23.350;2023-04-20T00:26:14;94562.00;;;11.62;77.19
55424;BME280;41294;42.666;23.350;2023-04-20T00:28:41;94564.06;;;11.58;77.25
55424;BME280;41294;42.666;23.350;2023-04-20T00:31:06;94560.59;;;11.52;78.66
55424;BME280;41294;42.666;23.350;2023-04-20T00:33:32;94553.69;;;11.55;78.61
55424;BME280;41294;42.666;23.350;2023-04-20T00:35:57;94563.34;;;11.58;78.42
55424;BME280;41294;42.666;23.350;2023-04-20T00:38:22;94554.53;;;11.38;79.04
55424;BME280;41294;42.666;23.350;2023-04-20T00:40:48;94553.06;;;11.37;79.09
55424;BME280;41294;42.666;23.350;2023-04-20T00:43:18;94557.50;;;11.31;79.90
55424;BME280;41294;42.666;23.350;2023-04-20T00:45:44;94553.34;;;11.39;79.97
55424;BME280;41294;42.666;23.350;2023-04-20T00:48:10;94556.63;;;11.34;80.09
55424;BME280;41294;42.666;23.350;2023-04-20T00:50:36;94560.16;;;11.31;81.17
55424;BME280;41294;42.666;23.350;2023-04-20T00:53:03;94562.38;;;11.23;81.18
55424;BME280;41294;42.666;23.350;2023-04-20T00:55:29;94555.88;;;11.19;80.24
55424;BME280;41294;42.666;23.350;2023-04-20T00:57:54;94555.78;;;11.28;80.77
55424;BME280;41294;42.666;23.350;2023-04-20T01:00:20;94551.78;;;11.32;80.75
55424;BME280;41294;42.666;23.350;2023-04-20T01:02:46;94554.34;;;11.27;80.03
55424;BME280;41294;42.666;23.350;2023-04-20T01:05:12;94552.88;;;11.26;80.63
55424;BME280;41294;42.666;23.350;2023-04-20T01:07:37;94555.22;;;11.24;81.14
55424;BME280;41294;42.666;23.350;2023-04-20T01:10:05;94547.03;;;11.22;81.12
55424;BME280;41294;42.666;23.350;2023-04-20T01:12:30;94551.13;;;11.23;81.88
55424;BME280;41294;42.666;23.350;2023-04-20T01:14:56;94550.13;;;11.20;80.64
55424;BME280;41294;42.666;23.350;2023-04-20T01:17:21;94553.53;;;11.12;81.35
55424;BME280;41294;42.666;23.350;2023-04-20T01:19:48;94553.38;;;11.15;81.80
55424;BME280;41294;42.666;23.350;2023-04-20T01:22:16;94561.69;;;11.23;82.12
55424;BME280;41294;42.666;23.350;2023-04-20T01:24:42;94564.59;;;11.25;81.47
55424;BME280;41294;42.666;23.350;2023-04-20T01:27:08;94553.78;;;11.23;81.51
55424;BME280;41294;42.666;23.350;2023-04-20T01:29:33;94555.94;;;11.24;81.94
55424;BME280;41294;42.666;23.350;2023-04-20T01:31:59;94555.34;;;11.29;81.96
55424;BME280;41294;42.666;23.350;2023-04-20T01:34:24;94556.69;;;11.25;81.75
55424;BME280;41294;42.666;23.350;2023-04-20T01:36:50;94548.31;;;11.26;81.61
55424;BME280;41294;42.666;23.350;2023-04-20T01:39:16;94559.59;;;11.27;81.84
55424;BME280;41294;42.666;23.350;2023-04-20T01:41:41;94547.72;;;11.31;81.53
55424;BME280;41294;42.666;23.350;2023-04-20T01:44:07;94544.50;;;11.27;82.08
55424;BME280;41294;42.666;23.350;2023-04-20T01:46:36;94545.50;;;11.30;81.97
55424;BME280;41294;42.666;23.350;2023-04-20T01:49:02;94541.88;;;11.27;81.14
55424;BME280;41294;42.666;23.350;2023-04-20T01:51:27;94535.63;;;11.25;81.71
55424;BME280;41294;42.666;23.350;2023-04-20T01:53:53;94537.50;;;11.24;81.60
55424;BME280;41294;42.666;23.350;2023-04-20T01:56:18;94540.31;;;11.21;81.20
55424;BME280;41294;42.666;23.350;2023-04-20T01:58:44;94536.78;;;11.24;81.71
55424;BME280;41294;42.666;23.350;2023-04-20T02:01:11;94530.63;;;11.27;81.76
55424;BME280;41294;42.666;23.350;2023-04-20T02:03:36;94539.53;;;11.29;82.00
55424;BME280;41294;42.666;23.350;2023-04-20T02:06:01;94535.44;;;11.28;81.60
55424;BME280;41294;42.666;23.350;2023-04-20T02:08:27;94529.94;;;11.17;81.74
55424;BME280;41294;42.666;23.350;2023-04-20T02:10:58;94532.16;;;11.19;82.07
55424;BME280;41294;42.666;23.350;2023-04-20T02:13:27;94530.34;;;11.25;81.43
55424;BME280;41294;42.666;23.350;2023-04-20T02:15:53;94535.63;;;11.25;81.28
55424;BME280;41294;42.666;23.350;2023-04-20T02:18:19;94531.25;;;11.22;81.93
55424;BME280;41294;42.666;23.350;2023-04-20T02:20:45;94532.34;;;11.30;81.61
55424;BME280;41294;42.666;23.350;2023-04-20T02:23:11;94530.53;;;11.21;81.32
55424;BME280;41294;42.666;23.350;2023-04-20T02:25:36;94537.47;;;11.10;81.64
55424;BME280;41294;42.666;23.350;2023-04-20T02:28:02;94533.44;;;11.00;82.12
55424;BME280;41294;42.666;23.350;2023-04-20T02:30:28;94529.91;;;11.03;82.26
55424;BME280;41294;42.666;23.350;2023-04-20T02:32:53;94534.06;;;10.95;82.94
55424;BME280;41294;42.666;23.350;2023-04-20T02:35:19;94528.97;;;10.91;83.33
55424;BME280;41294;42.666;23.350;2023-04-20T02:37:45;94532.41;;;10.97;83.12
55424;BME280;41294;42.666;23.350;2023-04-20T02:40:11;94532.34;;;10.92;83.56
55424;BME280;41294;42.666;23.350;2023-04-20T02:42:37;94545.03;;;10.93;83.13
55424;BME280;41294;42.666;23.350;2023-04-20T02:45:03;94542.59;;;10.90;84.17
55424;BME280;41294;42.666;23.350;2023-04-20T02:47:29;94536.91;;;10.82;84.19
55424;BME280;41294;42.666;23.350;2023-04-20T02:49:55;94539.25;;;10.80;83.93
55424;BME280;41294;42.666;23.350;2023-04-20T02:52:20;94537.53;;;10.77;83.90
55424;BME280;41294;42.666;23.350;2023-04-20T02:54:46;94544.09;;;10.82;83.98
55424;BME280;41294;42.666;23.350;2023-04-20T02:57:11;94538.94;;;10.87;83.50
55424;BME280;41294;42.666;23.350;2023-04-20T02:59:37;94542.81;;;11.01;82.53
55424;BME280;41294;42.666;23.350;2023-04-20T03:02:03;94532.94;;;10.87;82.49
55424;BME280;41294;42.666;23.350;2023-04-20T03:04:28;94541.41;;;10.91;83.00
55424;BME280;41294;42.666;23.350;2023-04-20T03:06:55;94523.34;;;10.98;82.18
55424;BME280;41294;42.666;23.350;2023-04-20T03:09:21;94542.34;;;11.02;82.20
55424;BME280;41294;42.666;23.350;2023-04-20T03:11:48;94537.81;;;11.03;82.38
55424;BME280;41294;42.666;23.350;2023-04-20T03:14:13;94534.22;;;10.91;82.38
55424;BME280;41294;42.666;23.350;2023-04-20T03:16:39;94533.41;;;10.85;83.60
55424;BME280;41294;42.666;23.350;2023-04-20T03:19:05;94528.44;;;11.02;82.83
55424;BME280;41294;42.666;23.350;2023-04-20T03:21:30;94534.78;;;10.95;82.45
55424;BME280;41294;42.666;23.350;2023-04-20T03:23:55;94532.53;;;11.03;82.31
55424;BME280;41294;42.666;23.350;2023-04-20T03:26:21;94529.91;;;11.03;81.48
55424;BME280;41294;42.666;23.350;2023-04-20T03:28:48;94527.09;;;11.06;82.25
55424;BME280;41294;42.666;23.350;2023-04-20T03:31:14;94542.75;;;11.10;81.47
55424;BME280;41294;42.666;23.350;2023-04-20T03:33:39;94534.00;;;11.04;81.59
55424;BME280;41294;42.666;23.350;2023-04-20T03:36:05;94543.63;;;11.07;81.66
55424;BME280;41294;42.666;23.350;2023-04-20T03:38:31;94542.91;;;11.06;81.87
55424;BME280;41294;42.666;23.350;2023-04-20T03:41:00;94535.16;;;11.03;81.91
55424;BME280;41294;42.666;23.350;2023-04-20T03:43:30;94534.28;;;11.06;81.99
55424;BME280;41294;42.666;23.350;2023-04-20T03:45:55;94536.91;;;11.06;82.15
55424;BME280;41294;42.666;23.350;2023-04-20T03:48:21;94540.19;;;11.15;81.76
55424;BME280;41294;42.666;23.350;2023-04-20T03:50:46;94534.56;;;11.08;81.85
55424;BME280;41294;42.666;23.350;2023-04-20T03:53:12;94533.81;;;11.31;81.30
55424;BME280;41294;42.666;23.350;2023-04-20T03:55:37;94539.44;;;11.24;80.15
55424;BME280;41294;42.666;23.350;2023-04-20T03:58:04;94535.69;;;11.16;80.13
55424;BME280;41294;42.666;23.350;2023-04-20T04:00:31;94533.75;;;11.16;80.26
55424;BME280;41294;42.666;23.350;2023-04-20T04:02:56;94536.84;;;11.15;80.17
55424;BME280;41294;42.666;23.350;2023-04-20T04:05:23;94544.06;;;11.29;79.87
55424;BME280;41294;42.666;23.350;2023-04-20T04:07:49;94538.97;;;11.25;80.09
55424;BME280;41294;42.666;23.350;2023-04-20T04:10:16;94549.50;;;11.25;79.99
55424;BME280;41294;42.666;23.350;2023-04-20T04:12:43;94551.97;;;11.29;80.28
55424;BME280;41294;42.666;23.350;2023-04-20T04:15:09;94552.06;;;11.34;80.00
55424;BME280;41294;42.666;23.350;2023-04-20T04:17:35;94561.97;;;11.25;80.16
55424;BME280;41294;42.666;23.350;2023-04-20T04:20:01;94551.41;;;11.25;80.00
55424;BME280;41294;42.666;23.350;2023-04-20T04:22:27;94553.06;;;11.37;80.37
55424;BME280;41294;42.666;23.350;2023-04-20T04:24:52;94557.81;;;11.33;80.09
55424;BME280;41294;42.666;23.350;2023-04-20T04:27:18;94555.38;;;11.44;79.90
55424;BME280;41294;42.666;23.350;2023-04-20T04:29:46;94556.56;;;11.43;79.15
55424;BME280;41294;42.666;23.350;2023-04-20T04:32:14;94557.66;;;11.50;78.41
55424;BME280;41294;42.666;23.350;2023-04-20T04:34:40;94559.72;;;11.46;79.52
55424;BME280;41294;42.666;23.350;2023-04-20T04:37:08;94559.53;;;11.36;78.83
55424;BME280;41294;42.666;23.350;2023-04-20T04:39:33;94557.00;;;11.41;78.59
55424;BME280;41294;42.666;23.350;2023-04-20T04:41:58;94564.00;;;11.44;79.18
55424;BME280;41294;42.666;23.350;2023-04-20T04:44:24;94561.25;;;11.62;88.47
55424;BME280;41294;42.666;23.350;2023-04-20T04:46:50;94564.53;;;11.71;80.73
55424;BME280;41294;42.666;23.350;2023-04-20T04:49:15;94570.44;;;11.66;79.01
55424;BME280;41294;42.666;23.350;2023-04-20T04:51:41;94579.88;;;11.58;78.20
55424;BME280;41294;42.666;23.350;2023-04-20T04:54:06;94575.19;;;11.62;78.84
55424;BME280;41294;42.666;23.350;2023-04-20T04:56:33;94577.81;;;11.62;78.38
55424;BME280;41294;42.666;23.350;2023-04-20T04:58:58;94574.63;;;11.73;77.42
55424;BME280;41294;42.666;23.350;2023-04-20T05:01:24;94573.91;;;11.72;77.97
55424;BME280;41294;42.666;23.350;2023-04-20T05:03:49;94580.63;;;11.73;77.72
55424;BME280;41294;42.666;23.350;2023-04-20T05:06:15;94579.00;;;11.76;77.45
55424;BME280;41294;42.666;23.350;2023-04-20T05:08:40;94578.84;;;11.79;77.91
55424;BME280;41294;42.666;23.350;2023-04-20T05:11:06;94581.72;;;11.81;77.88
55424;BME280;41294;42.666;23.350;2023-04-20T05:13:31;94583.19;;;11.82;77.16
55424;BME280;41294;42.666;23.350;2023-04-20T05:15:57;94585.91;;;11.88;77.78
55424;BME280;41294;42.666;23.350;2023-04-20T05:18:22;94578.06;;;11.64;77.31
55424;BME280;41294;42.666;23.350;2023-04-20T05:20:47;94579.81;;;11.67;77.85
55424;BME280;41294;42.666;23.350;2023-04-20T05:23:13;94576.63;;;11.78;77.49
55424;BME280;41294;42.666;23.350;2023-04-20T05:25:38;94580.00;;;11.78;77.18
55424;BME280;41294;42.666;23.350;2023-04-20T05:28:04;94578.84;;;11.79;77.54
55424;BME280;41294;42.666;23.350;2023-04-20T05:30:30;94580.63;;;11.73;76.97
55424;BME280;41294;42.666;23.350;2023-04-20T05:32:56;94580.94;;;11.90;77.63
55424;BME280;41294;42.666;23.350;2023-04-20T05:35:22;94582.75;;;11.98;76.42
55424;BME280;41294;42.666;23.350;2023-04-20T05:37:47;94586.50;;;12.06;75.91
55424;BME280;41294;42.666;23.350;2023-04-20T05:40:14;94584.41;;;12.10;75.79
55424;BME280;41294;42.666;23.350;2023-04-20T05:42:39;94584.50;;;12.16;76.83
55424;BME280;41294;42.666;23.350;2023-04-20T05:45:05;94590.94;;;12.00;76.45
55424;BME280;41294;42.666;23.350;2023-04-20T05:47:31;94588.84;;;12.04;76.47
55424;BME280;41294;42.666;23.350;2023-04-20T05:49:57;94585.22;;;11.87;77.44
55424;BME280;41294;42.666;23.350;2023-04-20T05:52:22;94595.13;;;11.92;77.43
55424;BME280;41294;42.666;23.350;2023-04-20T05:54:47;94584.09;;;11.94;76.81
55424;BME280;41294;42.666;23.350;2023-04-20T05:57:14;94590.66;;;11.98;76.88
55424;BME280;41294;42.666;23.350;2023-04-20T05:59:39;94585.75;;;12.06;76.64
55424;BME280;41294;42.666;23.350;2023-04-20T06:02:05;94591.03;;;12.06;76.93
55424;BME280;41294;42.666;23.350;2023-04-20T06:04:31;94593.13;;;11.87;77.65
55424;BME280;41294;42.666;23.350;2023-04-20T06:06:56;94592.66;;;11.89;78.50
55424;BME280;41294;42.666;23.350;2023-04-20T06:09:22;94582.75;;;11.98;78.86
55424;BME280;41294;42.666;23.350;2023-04-20T06:11:47;94596.13;;;12.09;79.20
55424;BME280;41294;42.666;23.350;2023-04-20T06:14:12;94593.84;;;12.02;79.77
55424;BME280;41294;42.666;23.350;2023-04-20T06:16:39;94598.75;;;12.09;79.87
55424;BME280;41294;42.666;23.350;2023-04-20T06:19:05;94591.22;;;12.02;79.95
55424;BME280;41294;42.666;23.350;2023-04-20T06:21:32;94589.31;;;12.17;80.31
55424;BME280;41294;42.666;23.350;2023-04-20T06:23:58;94593.97;;;12.22;80.09
55424;BME280;41294;42.666;23.350;2023-04-20T06:26:23;94597.69;;;12.30;80.17
55424;BME280;41294;42.666;23.350;2023-04-20T06:28:49;94595.13;;;12.50;79.98
55424;BME280;41294;42.666;23.350;2023-04-20T06:31:17;94595.75;;;12.45;78.73
55424;BME280;41294;42.666;23.350;2023-04-20T06:33:42;94595.03;;;12.30;79.14
55424;BME280;41294;42.666;23.350;2023-04-20T06:36:07;94599.75;;;12.55;78.63
55424;BME280;41294;42.666;23.350;2023-04-20T06:38:33;94601.72;;;12.60;78.22
55424;BME280;41294;42.666;23.350;2023-04-20T06:40:58;94609.22;;;12.61;78.27
55424;BME280;41294;42.666;23.350;2023-04-20T06:43:26;94597.03;;;12.35;78.76
55424;BME280;41294;42.666;23.350;2023-04-20T06:45:52;94604.31;;;12.40;78.19
55424;BME280;41294;42.666;23.350;2023-04-20T06:48:17;94608.16;;;12.39;77.78
55424;BME280;41294;42.666;23.350;2023-04-20T06:50:43;94603.59;;;12.25;78.21
55424;BME280;41294;42.666;23.350;2023-04-20T06:53:08;94619.97;;;12.15;79.01
55424;BME280;41294;42.666;23.350;2023-04-20T06:55:34;94612.22;;;12.11;78.74
55424;BME280;41294;42.666;23.350;2023-04-20T06:57:59;94619.50;;;12.16;78.63
55424;BME280;41294;42.666;23.350;2023-04-20T07:00:24;94619.06;;;12.18;79.13
55424;BME280;41294;42.666;23.350;2023-04-20T07:02:52;94625.69;;;11.99;80.48
55424;BME280;41294;42.666;23.350;2023-04-20T07:05:18;94623.78;;;11.99;80.37
55424;BME280;41294;42.666;23.350;2023-04-20T07:07:43;94625.59;;;11.93;81.08
55424;BME280;41294;42.666;23.350;2023-04-20T07:10:11;94626.63;;;12.25;80.66
55424;BME280;41294;42.666;23.350;2023-04-20T07:12:37;94626.44;;;12.42;80.81
55424;BME280;41294;42.666;23.350;2023-04-20T07:15:04;94630.25;;;12.41;80.52
55424;BME280;41294;42.666;23.350;2023-04-20T07:17:30;94628.34;;;12.42;80.23
55424;BME280;41294;42.666;23.350;2023-04-20T07:19:56;94628.00;;;12.34;80.83
55424;BME280;41294;42.666;23.350;2023-04-20T07:22:23;94625.06;;;12.47;81.03
55424;BME280;41294;42.666;23.350;2023-04-20T07:24:49;94625.97;;;12.44;81.14
55424;BME280;41294;42.666;23.350;2023-04-20T07:27:14;94631.63;;;12.66;80.42
55424;BME280;41294;42.666;23.350;2023-04-20T07:29:40;94630.44;;;12.67;79.15
55424;BME280;41294;42.666;23.350;2023-04-20T07:32:05;94627.59;;;12.85;79.03
55424;BME280;41294;42.666;23.350;2023-04-20T07:34:31;94625.09;;;12.81;78.64
55424;BME280;41294;42.666;23.350;2023-04-20T07:36:56;94621.72;;;13.10;77.99
55424;BME280;41294;42.666;23.350;2023-04-20T07:39:21;94619.66;;;13.19;77.03
55424;BME280;41294;42.666;23.350;2023-04-20T07:41:49;94620.41;;;13.19;76.24
55424;BME280;41294;42.666;23.350;2023-04-20T07:44:14;94616.97;;;13.33;74.94
55424;BME280;41294;42.666;23.350;2023-04-20T07:46:40;94625.97;;;13.41;74.74
55424;BME280;41294;42.666;23.350;2023-04-20T07:49:05;94622.69;;;13.46;74.14
55424;BME280;41294;42.666;23.350;2023-04-20T07:51:31;94621.31;;;13.56;73.23
55424;BME280;41294;42.666;23.350;2023-04-20T07:53:58;94618.78;;;14.07;71.81
55424;BME280;41294;42.666;23.350;2023-04-20T07:56:24;94616.25;;;14.18;70.83
55424;BME280;41294;42.666;23.350;2023-04-20T07:58:50;94618.88;;;14.43;69.16
55424;BME280;41294;42.666;23.350;2023-04-20T08:01:15;94624.59;;;14.67;68.16
55424;BME280;41294;42.666;23.350;2023-04-20T08:03:41;94623.38;;;14.63;69.02
55424;BME280;41294;42.666;23.350;2023-04-20T08:06:06;94631.13;;;15.02;67.12
55424;BME280;41294;42.666;23.350;2023-04-20T08:08:31;94625.91;;;15.13;66.83
55424;BME280;41294;42.666;23.350;2023-04-20T08:10:57;94629.53;;;14.79;66.59
55424;BME280;41294;42.666;23.350;2023-04-20T08:13:22;94624.09;;;14.94;66.43
55424;BME280;41294;42.666;23.350;2023-04-20T08:15:48;94622.28;;;15.16;65.38
55424;BME280;41294;42.666;23.350;2023-04-20T08:18:13;94620.25;;;15.37;65.17
55424;BME280;41294;42.666;23.350;2023-04-20T08:20:39;94622.66;;;15.29;65.28
55424;BME280;41294;42.666;23.350;2023-04-20T08:23:04;94622.25;;;15.47;65.28
55424;BME280;41294;42.666;23.350;2023-04-20T08:25:30;94614.69;;;15.93;63.01
55424;BME280;41294;42.666;23.350;2023-04-20T08:27:56;94628.88;;;15.79;62.86
55424;BME280;41294;42.666;23.350;2023-04-20T08:30:22;94615.00;;;15.48;64.08
55424;BME280;41294;42.666;23.350;2023-04-20T08:32:47;94621.69;;;15.32;64.64
55424;BME280;41294;42.666;23.350;2023-04-20T08:35:12;94616.53;;;15.18;65.65
55424;BME280;41294;42.666;23.350;2023-04-20T08:37:38;94626.88;;;15.16;64.60
55424;BME280;41294;42.666;23.350;2023-04-20T08:40:04;94625.06;;;14.96;65.69
55424;BME280;41294;42.666;23.350;2023-04-20T08:42:30;94626.63;;;14.78;66.23
55424;BME280;41294;42.666;23.350;2023-04-20T08:44:56;94628.16;;;14.59;66.49
55424;BME280;41294;42.666;23.350;2023-04-20T08:47:22;94625.59;;;14.39;67.65
55424;BME280;41294;42.666;23.350;2023-04-20T08:49:52;94618.81;;;14.63;66.55
55424;BME280;41294;42.666;23.350;2023-04-20T08:52:19;94623.09;;;14.91;65.83
55424;BME280;41294;42.666;23.350;2023-04-20T08:54:44;94628.25;;;15.06;65.12
55424;BME280;41294;42.666;23.350;2023-04-20T08:57:09;94629.63;;;15.32;64.72
55424;BME280;41294;42.666;23.350;2023-04-20T08:59:36;94620.16;;;14.84;64.69
55424;BME280;41294;42.666;23.350;2023-04-20T09:02:12;94625.78;;;14.61;65.58
55424;BME280;41294;42.666;23.350;2023-04-20T09:04:39;94627.03;;;14.71;66.13
55424;BME280;41294;42.666;23.350;2023-04-20T09:07:05;94626.38;;;14.76;65.15
55424;BME280;41294;42.666;23.350;2023-04-20T09:09:30;94629.34;;;14.88;65.10
55424;BME280;41294;42.666;23.350;2023-04-20T09:12:04;94629.41;;;14.99;65.07
55424;BME280;41294;42.666;23.350;2023-04-20T09:14:44;94623.84;;;15.28;64.16
55424;BME280;41294;42.666;23.350;2023-04-20T09:17:10;94624.50;;;15.23;63.56
55424;BME280;41294;42.666;23.350;2023-04-20T09:19:39;94632.19;;;15.16;63.85
55424;BME280;41294;42.666;23.350;2023-04-20T09:22:05;94624.13;;;15.41;63.61
55424;BME280;41294;42.666;23.350;2023-04-20T09:24:35;94617.97;;;15.61;62.91
55424;BME280;41294;42.666;23.350;2023-04-20T09:27:16;94618.59;;;15.39;63.40
55424;BME280;41294;42.666;23.350;2023-04-20T09:29:42;94611.00;;;15.68;62.91
55424;BME280;41294;42.666;23.350;2023-04-20T09:32:07;94608.53;;;15.54;63.37
55424;BME280;41294;42.666;23.350;2023-04-20T09:34:42;94608.66;;;15.92;61.56
55424;BME280;41294;42.666;23.350;2023-04-20T09:37:16;94603.88;;;16.24;60.44
55424;BME280;41294;42.666;23.350;2023-04-20T09:39:43;94610.47;;;16.55;60.24
55424;BME280;41294;42.666;23.350;2023-04-20T09:42:11;94599.59;;;16.64;59.32
55424;BME280;41294;42.666;23.350;2023-04-20T09:44:38;94607.31;;;16.73;59.06
55424;BME280;41294;42.666;23.350;2023-04-20T09:47:03;94605.59;;;16.98;58.18
55424;BME280;41294;42.666;23.350;2023-04-20T09:49:30;94610.63;;;17.34;57.44
55424;BME280;41294;42.666;23.350;2023-04-20T09:51:57;94606.06;;;17.29;56.69
55424;BME280;41294;42.666;23.350;2023-04-20T09:54:25;94599.06;;;17.88;55.89
55424;BME280;41294;42.666;23.350;2023-04-20T09:56:52;94597.47;;;18.49;54.56
55424;BME280;41294;42.666;23.350;2023-04-20T09:59:18;94601.00;;;18.63;52.94
55424;BME280;41294;42.666;23.350;2023-04-20T10:01:43;94586.28;;;18.56;52.73
55424;BME280;41294;42.666;23.350;2023-04-20T10:04:09;94590.66;;;18.54;53.53
55424;BME280;41294;42.666;23.350;2023-04-20T10:06:36;94588.19;;;18.61;52.36
55424;BME280;41294;42.666;23.350;2023-04-20T10:09:05;94583.44;;;18.49;52.33
55424;BME280;41294;42.666;23.350;2023-04-20T10:11:36;94587.75;;;18.17;53.65
55424;BME280;41294;42.666;23.350;2023-04-20T10:14:23;94580.50;;;18.52;52.67
55424;BME280;41294;42.666;23.350;2023-04-20T10:17:05;94580.91;;;18.27;53.87
55424;BME280;41294;42.666;23.350;2023-04-20T10:19:44;94571.56;;;17.69;54.98
55424;BME280;41294;42.666;23.350;2023-04-20T10:22:12;94579.16;;;17.95;55.17
55424;BME280;41294;42.666;23.350;2023-04-20T10:24:38;94580.78;;;18.09;53.82
55424;BME280;41294;42.666;23.350;2023-04-20T10:27:15;94568.94;;;18.04;54.26
55424;BME280;41294;42.666;23.350;2023-04-20T10:29:41;94576.97;;;17.99;53.83
55424;BME280;41294;42.666;23.350;2023-04-20T10:32:06;94561.81;;;18.17;53.53
55424;BME280;41294;42.666;23.350;2023-04-20T10:34:33;94566.69;;;18.13;53.99
55424;BME280;41294;42.666;23.350;2023-04-20T10:37:10;94571.84;;;18.46;52.62
55424;BME280;41294;42.666;23.350;2023-04-20T10:39:36;94560.63;;;18.53;52.66
55424;BME280;41294;42.666;23.350;2023-04-20T10:42:07;94575.81;;;18.64;52.31
55424;BME280;41294;42.666;23.350;2023-04-20T10:44:33;94567.75;;;18.69;52.20
55424;BME280;41294;42.666;23.350;2023-04-20T10:47:00;94563.28;;;18.53;52.08
55424;BME280;41294;42.666;23.350;2023-04-20T10:49:29;94559.72;;;18.75;51.44
55424;BME280;41294;42.666;23.350;2023-04-20T10:51:55;94562.69;;;18.36;52.64
55424;BME280;41294;42.666;23.350;2023-04-20T10:54:21;94562.22;;;18.62;52.51
55424;BME280;41294;42.666;23.350;2023-04-20T10:56:51;94561.88;;;18.76;51.36
55424;BME280;41294;42.666;23.350;2023-04-20T10:59:21;94568.13;;;19.08;51.19
55424;BME280;41294;42.666;23.350;2023-04-20T11:01:49;94562.09;;;19.50;48.93
55424;BME280;41294;42.666;23.350;2023-04-20T11:04:16;94559.75;;;20.01;47.89
55424;BME280;41294;42.666;23.350;2023-04-20T11:06:44;94555.91;;;20.15;47.58
55424;BME280;41294;42.666;23.350;2023-04-20T11:09:23;94559.44;;;20.55;47.24
55424;BME280;41294;42.666;23.350;2023-04-20T11:12:04;94556.22;;;20.43;46.25
55424;BME280;41294;42.666;23.350;2023-04-20T11:14:31;94540.09;;;20.49;46.02
55424;BME280;41294;42.666;23.350;2023-04-20T11:16:56;94544.44;;;20.83;45.63
55424;BME280;41294;42.666;23.350;2023-04-20T11:19:32;94541.06;;;20.64;45.43
55424;BME280;41294;42.666;23.350;2023-04-20T11:21:59;94541.31;;;20.48;46.76
55424;BME280;41294;42.666;23.350;2023-04-20T11:24:27;94542.81;;;20.30;46.86
55424;BME280;41294;42.666;23.350;2023-04-20T11:26:53;94530.16;;;19.99;47.96
55424;BME280;41294;42.666;23.350;2023-04-20T11:31:53;94543.84;;;19.11;48.51
55424;BME280;41294;42.666;23.350;2023-04-20T11:34:18;94540.59;;;19.42;48.80
55424;BME280;41294;42.666;23.350;2023-04-20T11:36:44;94543.47;;;19.26;49.14
55424;BME280;41294;42.666;23.350;2023-04-20T11:39:10;94535.97;;;18.95;50.44
55424;BME280;41294;42.666;23.350;2023-04-20T11:41:39;94540.00;;;19.07;50.37
55424;BME280;41294;42.666;23.350;2023-04-20T11:44:06;94535.53;;;18.91;49.69
55424;BME280;41294;42.666;23.350;2023-04-20T11:46:33;94529.63;;;18.50;49.89
55424;BME280;41294;42.666;23.350;2023-04-20T11:49:02;94530.75;;;18.60;50.43
55424;BME280;41294;42.666;23.350;2023-04-20T11:51:29;94534.91;;;18.56;50.11
55424;BME280;41294;42.666;23.350;2023-04-20T11:53:56;94526.06;;;18.42;50.24
55424;BME280;41294;42.666;23.350;2023-04-20T11:56:21;94530.31;;;18.80;49.72
55424;BME280;41294;42.666;23.350;2023-04-20T11:58:47;94522.56;;;18.53;49.06
55424;BME280;41294;42.666;23.350;2023-04-20T12:01:13;94528.44;;;18.46;49.44
55424;BME280;41294;42.666;23.350;2023-04-20T12:03:41;94525.34;;;18.42;49.80
55424;BME280;41294;42.666;23.350;2023-04-20T12:06:06;94514.72;;;18.36;50.20
55424;BME280;41294;42.666;23.350;2023-04-20T12:08:31;94515.00;;;18.33;50.42
55424;BME280;41294;42.666;23.350;2023-04-20T12:10:57;94525.06;;;18.45;50.16
55424;BME280;41294;42.666;23.350;2023-04-20T12:13:22;94519.50;;;18.43;50.42
55424;BME280;41294;42.666;23.350;2023-04-20T12:15:47;94520.09;;;18.31;50.62
55424;BME280;41294;42.666;23.350;2023-04-20T12:18:13;94521.34;;;18.19;50.87
55424;BME280;41294;42.666;23.350;2023-04-20T12:20:38;94531.69;;;17.99;51.57
55424;BME280;41294;42.666;23.350;2023-04-20T12:23:04;94528.75;;;17.62;53.23
55424;BME280;41294;42.666;23.350;2023-04-20T12:25:29;94531.84;;;17.09;54.09
55424;BME280;41294;42.666;23.350;2023-04-20T12:27:55;94520.50;;;16.98;54.57
55424;BME280;41294;42.666;23.350;2023-04-20T12:30:20;94528.00;;;16.99;54.68
55424;BME280;41294;42.666;23.350;2023-04-20T12:32:46;94527.97;;;17.05;54.85
55424;BME280;41294;42.666;23.350;2023-04-20T12:35:11;94519.78;;;16.97;55.32
55424;BME280;41294;42.666;23.350;2023-04-20T12:37:37;94522.72;;;16.88;55.54
55424;BME280;41294;42.666;23.350;2023-04-20T12:40:02;94526.38;;;16.63;56.58
55424;BME280;41294;42.666;23.350;2023-04-20T12:42:30;94517.19;;;16.70;56.79
55424;BME280;41294;42.666;23.350;2023-04-20T12:44:55;94513.38;;;16.49;56.88
55424;BME280;41294;42.666;23.350;2023-04-20T12:47:21;94509.72;;;16.25;56.83
55424;BME280;41294;42.666;23.350;2023-04-20T12:49:46;94519.59;;;16.24;57.82